Time;durP1;ratioP1;P1;durP2;ratioP2;P2;SDS_P1;SDS_P2;PMS_P1;PMS_P2;Temp;Humidity;BMP_temperature;BMP_pressure;BME280_temperature;BME280_humidity;BME280_pressure;Samples;Min_cycle;Max_cycle;Signal;HPM_P1;HPM_P2
2022/06/15 00:01:42;;;;;;;0.00;0.00;;;;;;;;;;5044147;28;20131;-72
2022/06/15 00:04:10;;;;;;;0.00;0.00;;;;;;;;;;5033119;28;20136;-72
2022/06/15 00:06:42;;;;;;;0.10;0.10;;;;;;;;;;5031821;28;20543;-72
2022/06/15 00:09:11;;;;;;;0.00;0.00;;;;;;;;;;5032839;28;20136;-71
2022/06/15 00:11:44;;;;;;;0.10;0.10;;;;;;;;;;5043174;28;20065;-72
2022/06/15 00:14:14;;;;;;;0.00;0.00;;;;;;;;;;5052476;28;20132;-72
2022/06/15 00:16:43;;;;;;;0.75;0.75;;;;;;;;;;5062023;28;20087;-72
2022/06/15 00:19:12;;;;;;;0.00;0.00;;;;;;;;;;5061811;28;20088;-72
2022/06/15 00:21:42;;;;;;;0.20;0.20;;;;;;;;;;5032394;28;20100;-72
2022/06/15 00:24:11;;;;;;;0.00;0.00;;;;;;;;;;5032625;28;20065;-71
2022/06/15 00:26:41;;;;;;;0.10;0.10;;;;;;;;;;5031610;28;20081;-72
2022/06/15 00:29:10;;;;;;;0.08;0.08;;;;;;;;;;5032316;28;20446;-72
2022/06/15 00:31:38;;;;;;;0.10;0.10;;;;;;;;;;5032596;28;20093;-72
2022/06/15 00:34:07;;;;;;;0.00;0.00;;;;;;;;;;5032104;28;20041;-72
2022/06/15 00:36:35;;;;;;;0.00;0.00;;;;;;;;;;5039386;28;20103;-72
2022/06/15 00:39:05;;;;;;;0.08;0.08;;;;;;;;;;5051602;28;20083;-72
2022/06/15 00:41:35;;;;;;;1.35;0.73;;;;;;;;;;5051550;28;20656;-72
2022/06/15 00:44:04;;;;;;;0.05;0.05;;;;;;;;;;5052150;28;20059;-72
2022/06/15 00:46:36;;;;;;;0.00;0.00;;;;;;;;;;5052130;28;20053;-72
2022/06/15 00:49:06;;;;;;;0.00;0.00;;;;;;;;;;5051799;28;20056;-72
2022/06/15 00:51:35;;;;;;;0.20;0.20;;;;;;;;;;5043754;28;20045;-72
2022/06/15 00:54:04;;;;;;;0.10;0.10;;;;;;;;;;5039082;28;20152;-72
2022/06/15 00:56:34;;;;;;;0.30;0.30;;;;;;;;;;5031688;28;20141;-72
2022/06/15 00:59:05;;;;;;;0.52;0.45;;;;;;;;;;5030897;28;20073;-72
2022/06/15 01:01:34;;;;;;;0.00;0.00;;;;;;;;;;5032411;28;20104;-72
2022/06/15 01:04:04;;;;;;;0.05;0.05;;;;;;;;;;5031446;28;20409;-72
2022/06/15 01:06:39;;;;;;;0.00;0.00;;;;;;;;;;5031585;28;20485;-72
2022/06/15 01:09:10;;;;;;;0.50;0.50;;;;;;;;;;5031376;28;20136;-72
2022/06/15 01:11:46;;;;;;;0.10;0.10;;;;;;;;;;5042139;28;20081;-72
2022/06/15 01:14:21;;;;;;;0.00;0.00;;;;;;;;;;5051087;28;20399;-72
2022/06/15 01:16:53;;;;;;;0.10;0.10;;;;;;;;;;5051056;28;20080;-72
2022/06/15 01:19:37;;;;;;;0.10;0.10;;;;;;;;;;5051194;28;20084;-72
2022/06/15 01:22:12;;;;;;;0.00;0.00;;;;;;;;;;5051138;28;20136;-72
2022/06/15 01:24:41;;;;;;;;;;;;;;;;;;5051621;28;20092;-72
2022/06/15 01:27:30;;;;;;;0.20;0.20;;;;;;;;;;5040372;28;19925;-72
2022/06/15 01:30:17;;;;;;;0.45;0.45;;;;;;;;;;5031352;28;20124;-72
2022/06/15 01:32:50;;;;;;;0.00;0.00;;;;;;;;;;5031213;28;20049;-72
2022/06/15 01:35:24;;;;;;;0.10;0.10;;;;;;;;;;5031268;28;20046;-72
2022/06/15 01:37:57;;;;;;;0.25;0.25;;;;;;;;;;5030558;28;20057;-72
2022/06/15 01:40:27;;;;;;;0.10;0.10;;;;;;;;;;5046966;28;20080;-72
2022/06/15 01:42:59;;;;;;;0.10;0.10;;;;;;;;;;5051582;28;20125;-72
2022/06/15 01:45:29;;;;;;;0.10;0.10;;;;;;;;;;5029201;28;20143;-72
2022/06/15 01:48:01;;;;;;;0.10;0.10;;;;;;;;;;5030785;28;20053;-72
2022/06/15 01:50:37;;;;;;;0.00;0.00;;;;;;;;;;5044388;28;20085;-72
2022/06/15 01:53:12;;;;;;;0.52;0.52;;;;;;;;;;5044199;28;20136;-72
2022/06/15 01:55:43;;;;;;;0.00;0.00;;;;;;;;;;5050137;28;20045;-72
2022/06/15 01:58:14;;;;;;;0.10;0.10;;;;;;;;;;5050601;28;20144;-72
2022/06/15 02:00:43;;;;;;;0.08;0.08;;;;;;;;;;5049690;28;20049;-72
2022/06/15 02:03:14;;;;;;;0.10;0.10;;;;;;;;;;5031191;28;20084;-72
2022/06/15 02:05:46;;;;;;;1.75;0.68;;;;;;;;;;5030858;28;20053;-72
2022/06/15 02:08:18;;;;;;;0.00;0.00;;;;;;;;;;5030701;28;20080;-72
2022/06/15 02:10:52;;;;;;;0.10;0.10;;;;;;;;;;5044622;28;20041;-72
2022/06/15 02:13:23;;;;;;;0.00;0.00;;;;;;;;;;5051369;28;20090;-72
2022/06/15 02:15:56;;;;;;;0.65;0.65;;;;;;;;;;5050752;28;20049;-72
2022/06/15 02:18:26;;;;;;;0.10;0.10;;;;;;;;;;5044132;28;20401;-72
2022/06/15 02:20:58;;;;;;;0.28;0.28;;;;;;;;;;5030796;28;20100;-72
2022/06/15 02:23:28;;;;;;;0.10;0.10;;;;;;;;;;5030735;28;20084;-72
2022/06/15 02:25:57;;;;;;;0.10;0.10;;;;;;;;;;5030781;28;20076;-72
2022/06/15 02:28:29;;;;;;;0.30;0.30;;;;;;;;;;5030124;28;20069;-72
2022/06/15 02:30:57;;;;;;;0.45;0.45;;;;;;;;;;5030684;28;20085;-72
2022/06/15 02:33:28;;;;;;;0.10;0.10;;;;;;;;;;5030954;28;20124;-72
2022/06/15 02:35:58;;;;;;;0.00;0.00;;;;;;;;;;5030767;28;20639;-72
2022/06/15 02:38:26;;;;;;;0.32;0.32;;;;;;;;;;5030349;28;20081;-73
2022/06/15 02:40:55;;;;;;;0.00;0.00;;;;;;;;;;5037807;28;20081;-72
2022/06/15 02:43:24;;;;;;;0.00;0.00;;;;;;;;;;5052166;28;20178;-72
2022/06/15 02:45:53;;;;;;;0.10;0.10;;;;;;;;;;5054354;28;20084;-72
2022/06/15 02:48:22;;;;;;;0.10;0.10;;;;;;;;;;5053973;28;20072;-72
2022/06/15 02:50:54;;;;;;;0.20;0.20;;;;;;;;;;5054123;28;20123;-72
2022/06/15 02:53:24;;;;;;;0.10;0.10;;;;;;;;;;5039677;28;20153;-72
2022/06/15 02:55:53;;;;;;;0.10;0.10;;;;;;;;;;5033747;28;20577;-72
2022/06/15 02:58:24;;;;;;;0.10;0.10;;;;;;;;;;5033282;28;20405;-72
2022/06/15 03:00:52;;;;;;;0.10;0.10;;;;;;;;;;5034214;28;20077;-72
2022/06/15 03:03:22;;;;;;;0.00;0.00;;;;;;;;;;5033929;28;20096;-72
2022/06/15 03:05:53;;;;;;;0.10;0.10;;;;;;;;;;5033394;28;20060;-72
2022/06/15 03:08:22;;;;;;;0.00;0.00;;;;;;;;;;5033610;28;20069;-72
2022/06/15 03:10:50;;;;;;;0.00;0.00;;;;;;;;;;5037961;28;20088;-72
2022/06/15 03:13:19;;;;;;;0.10;0.10;;;;;;;;;;5053861;28;20102;-72
2022/06/15 03:15:47;;;;;;;0.32;0.32;;;;;;;;;;5053336;28;20545;-73
2022/06/15 03:18:15;;;;;;;0.20;0.20;;;;;;;;;;5052616;28;20072;-72
2022/06/15 03:20:44;;;;;;;0.03;0.03;;;;;;;;;;5053329;28;20041;-72
2022/06/15 03:23:14;;;;;;;0.10;0.10;;;;;;;;;;5053439;28;20523;-72
2022/06/15 03:25:42;;;;;;;0.10;0.10;;;;;;;;;;5052321;28;20135;-72
2022/06/15 03:28:10;;;;;;;0.38;0.38;;;;;;;;;;5032636;28;20042;-72
2022/06/15 03:30:39;;;;;;;0.10;0.10;;;;;;;;;;5033459;28;20148;-72
2022/06/15 03:33:07;;;;;;;1.02;0.98;;;;;;;;;;5033676;28;20136;-72
2022/06/15 03:35:36;;;;;;;0.10;0.10;;;;;;;;;;5033009;28;20561;-72
2022/06/15 03:38:08;;;;;;;0.03;0.03;;;;;;;;;;5032489;28;20128;-72
2022/06/15 03:40:38;;;;;;;0.35;0.35;;;;;;;;;;5033473;28;20128;-72
2022/06/15 03:43:06;;;;;;;0.10;0.10;;;;;;;;;;5033121;28;20129;-72
2022/06/15 03:45:35;;;;;;;0.10;0.10;;;;;;;;;;5033202;28;20132;-72
2022/06/15 03:48:04;;;;;;;0.00;0.00;;;;;;;;;;5032608;28;20056;-72
2022/06/15 03:50:34;;;;;;;0.10;0.10;;;;;;;;;;5034087;28;20100;-72
2022/06/15 03:53:02;;;;;;;0.10;0.10;;;;;;;;;;5052883;28;20092;-72
2022/06/15 03:55:31;;;;;;;0.10;0.10;;;;;;;;;;5052844;28;20152;-72
2022/06/15 03:58:01;;;;;;;0.20;0.20;;;;;;;;;;5051663;28;20068;-72
2022/06/15 04:00:30;;;;;;;0.10;0.10;;;;;;;;;;5038311;28;20073;-72
2022/06/15 04:02:59;;;;;;;0.10;0.10;;;;;;;;;;5013409;28;20486;-72
2022/06/15 04:05:29;;;;;;;0.00;0.00;;;;;;;;;;5012915;28;20057;-72
2022/06/15 04:10:40;;;;;;;0.10;0.10;;;;;;;;;;5006786;28;20124;-72
2022/06/15 04:13:10;;;;;;;0.28;0.28;;;;;;;;;;5032835;28;20080;-72
2022/06/15 04:15:38;;;;;;;0.10;0.10;;;;;;;;;;5032299;28;20053;-72
2022/06/15 04:18:07;;;;;;;0.10;0.10;;;;;;;;;;5019445;28;20142;-72
2022/06/15 04:20:36;;;;;;;0.10;0.10;;;;;;;;;;5013026;28;20081;-72
2022/06/15 04:23:07;;;;;;;0.10;0.10;;;;;;;;;;5013241;28;20046;-72
2022/06/15 04:25:37;;;;;;;0.10;0.10;;;;;;;;;;5012719;28;20054;-72
2022/06/15 04:28:06;;;;;;;1.08;1.00;;;;;;;;;;5012121;28;20108;-72
2022/06/15 04:30:35;;;;;;;0.10;0.10;;;;;;;;;;5012443;28;20093;-72
2022/06/15 04:33:04;;;;;;;0.30;0.30;;;;;;;;;;5012381;28;20137;-72
2022/06/15 04:35:32;;;;;;;0.10;0.10;;;;;;;;;;5012361;28;20137;-72
2022/06/15 04:38:01;;;;;;;0.00;0.00;;;;;;;;;;5012161;28;20153;-72
2022/06/15 04:40:29;;;;;;;0.70;0.52;;;;;;;;;;5014833;28;20045;-72
2022/06/15 04:42:58;;;;;;;0.10;0.10;;;;;;;;;;5051844;28;20135;-72
2022/06/15 04:45:26;;;;;;;0.00;0.00;;;;;;;;;;5052385;28;20079;-72
2022/06/15 04:47:58;;;;;;;0.00;0.00;;;;;;;;;;5051717;28;20061;-72
2022/06/15 04:50:27;;;;;;;0.00;0.00;;;;;;;;;;5052044;28;20099;-72
2022/06/15 04:52:56;;;;;;;0.10;0.10;;;;;;;;;;5014606;28;20383;-72
2022/06/15 04:55:25;;;;;;;0.10;0.10;;;;;;;;;;5032146;28;20049;-72
2022/06/15 04:57:54;;;;;;;0.10;0.10;;;;;;;;;;5030973;28;20145;-72
2022/06/15 05:00:24;;;;;;;0.20;0.20;;;;;;;;;;5031930;28;20053;-72
2022/06/15 05:02:53;;;;;;;0.40;0.40;;;;;;;;;;5031538;28;20081;-72
2022/06/15 05:05:23;;;;;;;0.00;0.00;;;;;;;;;;5031391;28;20053;-72
2022/06/15 05:07:52;;;;;;;0.10;0.10;;;;;;;;;;5030633;28;20176;-72
2022/06/15 05:10:23;;;;;;;0.43;0.43;;;;;;;;;;5031197;28;20054;-72
2022/06/15 05:12:51;;;;;;;0.15;0.15;;;;;;;;;;5051288;28;20053;-72
2022/06/15 05:15:21;;;;;;;0.15;0.15;;;;;;;;;;5051053;28;20103;-72
2022/06/15 05:17:50;;;;;;;0.25;0.25;;;;;;;;;;5050917;28;20072;-72
2022/06/15 05:20:19;;;;;;;0.45;0.45;;;;;;;;;;5050961;28;20052;-72
2022/06/15 05:22:55;;;;;;;1.10;0.30;;;;;;;;;;5051363;28;20080;-72
2022/06/15 05:25:24;;;;;;;0.10;0.10;;;;;;;;;;5044887;28;20128;-72
2022/06/15 05:27:52;;;;;;;0.00;0.00;;;;;;;;;;5027191;28;20166;-72
2022/06/15 05:30:21;;;;;;;0.50;0.50;;;;;;;;;;5047119;28;20497;-72
2022/06/15 05:32:49;;;;;;;0.32;0.32;;;;;;;;;;5050608;28;20161;-72
2022/06/15 05:35:18;;;;;;;1.00;0.68;;;;;;;;;;5051292;28;20084;-72
2022/06/15 05:37:46;;;;;;;0.00;0.00;;;;;;;;;;5050101;28;20530;-72
2022/06/15 05:40:16;;;;;;;0.10;0.10;;;;;;;;;;5046948;28;20052;-72
2022/06/15 05:42:44;;;;;;;0.10;0.10;;;;;;;;;;5034419;28;20453;-72
2022/06/15 05:45:13;;;;;;;0.00;0.00;;;;;;;;;;5037495;28;20464;-72
2022/06/15 05:47:41;;;;;;;0.10;0.10;;;;;;;;;;5050335;28;20469;-72
2022/06/15 05:50:10;;;;;;;0.10;0.10;;;;;;;;;;5051358;28;20045;-72
2022/06/15 05:52:40;;;;;;;0.08;0.08;;;;;;;;;;5032267;28;20080;-72
2022/06/15 05:55:09;;;;;;;0.75;0.70;;;;;;;;;;5031167;28;20567;-72
2022/06/15 05:57:38;;;;;;;0.10;0.10;;;;;;;;;;5030343;28;20080;-72
2022/06/15 06:00:09;;;;;;;0.00;0.00;;;;;;;;;;5030391;28;20490;-72
2022/06/15 06:02:38;;;;;;;0.03;0.03;;;;;;;;;;5031003;28;20053;-72
2022/06/15 06:05:07;;;;;;;0.15;0.15;;;;;;;;;;5031181;28;20061;-71
2022/06/15 06:07:35;;;;;;;0.00;0.00;;;;;;;;;;5030287;28;20081;-72
2022/06/15 06:10:04;;;;;;;0.10;0.10;;;;;;;;;;5030789;28;20088;-72
2022/06/15 06:12:32;;;;;;;0.00;0.00;;;;;;;;;;5048968;28;20124;-72
2022/06/15 06:15:02;;;;;;;0.10;0.10;;;;;;;;;;5050429;28;20132;-72
2022/06/15 06:17:30;;;;;;;0.00;0.00;;;;;;;;;;5034170;28;20053;-71
2022/06/15 06:19:59;;;;;;;0.10;0.10;;;;;;;;;;5034440;28;20432;-71
2022/06/15 06:22:27;;;;;;;0.10;0.10;;;;;;;;;;5034930;28;20049;-71
2022/06/15 06:24:56;;;;;;;0.10;0.10;;;;;;;;;;5034650;28;20509;-72
2022/06/15 06:27:24;;;;;;;1.10;0.75;;;;;;;;;;5034180;28;20124;-72
2022/06/15 06:29:59;;;;;;;0.38;0.38;;;;;;;;;;5034742;28;20061;-72
2022/06/15 06:32:28;;;;;;;3.10;0.50;;;;;;;;;;5034994;28;20453;-72
2022/06/15 06:34:57;;;;;;;0.00;0.00;;;;;;;;;;5034550;28;20046;-72
2022/06/15 06:37:25;;;;;;;0.00;0.00;;;;;;;;;;5033770;28;20104;-72
2022/06/15 06:39:57;;;;;;;0.00;0.00;;;;;;;;;;5034129;28;20085;-72
2022/06/15 06:42:25;;;;;;;0.00;0.00;;;;;;;;;;5034604;28;20127;-71
2022/06/15 06:44:54;;;;;;;0.00;0.00;;;;;;;;;;5034600;28;20080;-72
2022/06/15 06:47:22;;;;;;;0.10;0.10;;;;;;;;;;5033312;28;20048;-71
2022/06/15 06:49:52;;;;;;;0.00;0.00;;;;;;;;;;5034033;28;20132;-72
2022/06/15 06:52:21;;;;;;;0.30;0.30;;;;;;;;;;5050163;28;20056;-72
2022/06/15 06:54:50;;;;;;;0.15;0.15;;;;;;;;;;5053820;28;20143;-72
2022/06/15 06:57:18;;;;;;;0.20;0.20;;;;;;;;;;5053081;28;20056;-72
2022/06/15 06:59:47;;;;;;;0.00;0.00;;;;;;;;;;5054188;28;20076;-72
2022/06/15 07:02:15;;;;;;;0.00;0.00;;;;;;;;;;5053840;28;20085;-72
2022/06/15 07:04:44;;;;;;;0.00;0.00;;;;;;;;;;5053910;28;20396;-72
2022/06/15 07:07:14;;;;;;;0.00;0.00;;;;;;;;;;5043121;28;20066;-72
2022/06/15 07:09:42;;;;;;;0.03;0.03;;;;;;;;;;5014579;28;20120;-72
2022/06/15 07:12:11;;;;;;;0.15;0.15;;;;;;;;;;5029394;28;20123;-72
2022/06/15 07:14:39;;;;;;;0.00;0.00;;;;;;;;;;5033785;28;20451;-73
2022/06/15 07:17:08;;;;;;;0.00;0.00;;;;;;;;;;5033048;28;20041;-72
2022/06/15 07:19:43;;;;;;;0.10;0.10;;;;;;;;;;5033386;28;20057;-72
2022/06/15 07:22:13;;;;;;;0.00;0.00;;;;;;;;;;5033371;28;20449;-72
2022/06/15 07:24:42;;;;;;;0.00;0.00;;;;;;;;;;5024830;28;20037;-72
2022/06/15 07:27:10;;;;;;;0.08;0.08;;;;;;;;;;5012696;28;20073;-72
2022/06/15 07:29:39;;;;;;;0.10;0.10;;;;;;;;;;5013196;28;20057;-72
2022/06/15 07:32:08;;;;;;;0.10;0.10;;;;;;;;;;5013592;28;20053;-73
2022/06/15 07:34:37;;;;;;;0.00;0.00;;;;;;;;;;5013633;28;20510;-72
2022/06/15 07:37:07;;;;;;;0.03;0.03;;;;;;;;;;5012574;28;20095;-72
2022/06/15 07:39:38;;;;;;;0.03;0.03;;;;;;;;;;5013513;28;20085;-72
2022/06/15 07:42:08;;;;;;;0.22;0.22;;;;;;;;;;5013230;28;20498;-72
2022/06/15 07:44:38;;;;;;;0.10;0.10;;;;;;;;;;5013413;28;20058;-72
2022/06/15 07:49:55;;;;;;;0.00;0.00;;;;;;;;;;5013075;28;20050;-72
2022/06/15 07:52:45;;;;;;;0.00;0.00;;;;;;;;;;5051416;28;20128;-72
2022/06/15 07:55:16;;;;;;;0.50;0.50;;;;;;;;;;5072261;28;20099;-72
2022/06/15 07:57:45;;;;;;;0.10;0.10;;;;;;;;;;5069588;28;20040;-72
2022/06/15 08:00:14;;;;;;;0.60;0.60;;;;;;;;;;5033026;28;20049;-70
2022/06/15 08:02:43;;;;;;;0.00;0.00;;;;;;;;;;5032580;28;20049;-71
2022/06/15 08:05:11;;;;;;;1.55;0.90;;;;;;;;;;5032707;28;20045;-71
2022/06/15 08:07:41;;;;;;;0.22;0.22;;;;;;;;;;5032019;28;20053;-71
2022/06/15 08:10:11;;;;;;;0.17;0.17;;;;;;;;;;5033118;28;20111;-71
2022/06/15 08:12:41;;;;;;;0.00;0.00;;;;;;;;;;5051605;28;20060;-71
2022/06/15 08:15:10;;;;;;;0.00;0.00;;;;;;;;;;5048105;28;20053;-71
2022/06/15 08:17:41;;;;;;;0.08;0.08;;;;;;;;;;5032298;28;20329;-71
2022/06/15 08:20:16;;;;;;;0.00;0.00;;;;;;;;;;5032597;28;20046;-71
2022/06/15 08:22:47;;;;;;;0.00;0.00;;;;;;;;;;5032869;28;20057;-71
2022/06/15 08:25:18;;;;;;;0.25;0.25;;;;;;;;;;5032446;28;20081;-71
2022/06/15 08:27:48;;;;;;;0.10;0.10;;;;;;;;;;5031703;28;20107;-71
2022/06/15 08:30:18;;;;;;;0.10;0.10;;;;;;;;;;5032135;28;20057;-71
2022/06/15 08:32:47;;;;;;;0.30;0.30;;;;;;;;;;5039336;28;20050;-71
2022/06/15 08:35:15;;;;;;;0.20;0.20;;;;;;;;;;5036606;28;20087;-71
2022/06/15 08:37:44;;;;;;;0.43;0.40;;;;;;;;;;5068116;28;20090;-70
2022/06/15 08:40:13;;;;;;;0.75;0.47;;;;;;;;;;5071387;28;20053;-71
2022/06/15 08:42:44;;;;;;;0.10;0.10;;;;;;;;;;5072009;28;20431;-71
2022/06/15 08:45:18;;;;;;;0.13;0.13;;;;;;;;;;5072139;28;20067;-71
2022/06/15 08:47:57;;;;;;;0.30;0.30;;;;;;;;;;5071589;28;20059;-71
2022/06/15 08:50:28;;;;;;;0.00;0.00;;;;;;;;;;5041327;28;20056;-70
2022/06/15 08:53:02;;;;;;;0.00;0.00;;;;;;;;;;5051934;28;20048;-71
2022/06/15 08:55:36;;;;;;;0.45;0.45;;;;;;;;;;5051686;28;20080;-70
2022/06/15 08:58:13;;;;;;;0.00;0.00;;;;;;;;;;5051167;28;20049;-70
2022/06/15 09:00:45;;;;;;;0.00;0.00;;;;;;;;;;5051926;28;20057;-70
2022/06/15 09:03:22;;;;;;;0.00;0.00;;;;;;;;;;5051230;28;20071;-70
2022/06/15 09:05:53;;;;;;;0.05;0.05;;;;;;;;;;5047146;28;20049;-70
2022/06/15 09:08:32;;;;;;;0.00;0.00;;;;;;;;;;5027412;28;20094;-70
2022/06/15 09:11:06;;;;;;;0.10;0.10;;;;;;;;;;5036891;28;20137;-70
2022/06/15 09:13:42;;;;;;;2.60;1.08;;;;;;;;;;5052331;28;20079;-71
2022/06/15 09:16:16;;;;;;;0.00;0.00;;;;;;;;;;5051708;28;20048;-71
2022/06/15 09:18:46;;;;;;;0.00;0.00;;;;;;;;;;5050854;28;20045;-71
2022/06/15 09:21:17;;;;;;;0.65;0.65;;;;;;;;;;5051350;28;20091;-70
2022/06/15 09:23:48;;;;;;;0.30;0.30;;;;;;;;;;5042462;28;20100;-71
2022/06/15 09:26:22;;;;;;;0.10;0.10;;;;;;;;;;5031050;28;20080;-71
2022/06/15 09:28:53;;;;;;;0.00;0.00;;;;;;;;;;5030551;28;20558;-72
2022/06/15 09:31:25;;;;;;;0.10;0.10;;;;;;;;;;5031135;28;20493;-71
2022/06/15 09:33:55;;;;;;;0.00;0.00;;;;;;;;;;5023408;28;20507;-70
2022/06/15 09:36:26;;;;;;;0.45;0.30;;;;;;;;;;5031521;28;20045;-70
2022/06/15 09:38:55;;;;;;;0.00;0.00;;;;;;;;;;5031142;28;20050;-70
2022/06/15 09:41:26;;;;;;;0.00;0.00;;;;;;;;;;5031122;28;20080;-70
2022/06/15 09:44:03;;;;;;;0.00;0.00;;;;;;;;;;5031324;28;20053;-71
2022/06/15 09:46:57;;;;;;;0.00;0.00;;;;;;;;;;5030301;28;20513;-72
2022/06/15 09:49:39;;;;;;;0.80;0.52;;;;;;;;;;5031122;28;20061;-71
2022/06/15 09:52:12;;;;;;;0.00;0.00;;;;;;;;;;5044821;28;20075;-72
2022/06/15 09:54:46;;;;;;;0.00;0.00;;;;;;;;;;5051054;28;20057;-71
2022/06/15 09:57:14;;;;;;;0.40;0.40;;;;;;;;;;5039880;28;20101;-72
2022/06/15 09:59:43;;;;;;;0.00;0.00;;;;;;;;;;5029898;28;20068;-72
2022/06/15 10:02:17;;;;;;;0.00;0.00;;;;;;;;;;5031044;28;20057;-71
2022/06/15 10:04:50;;;;;;;0.00;0.00;;;;;;;;;;5030631;28;20059;-71
2022/06/15 10:07:20;;;;;;;0.00;0.00;;;;;;;;;;5030606;28;20053;-71
2022/06/15 10:09:51;;;;;;;0.47;0.28;;;;;;;;;;5031204;28;20049;-71
2022/06/15 10:15:16;;;;;;;0.10;0.10;;;;;;;;;;5037196;28;20460;-71
2022/06/15 10:17:49;;;;;;;0.17;0.17;;;;;;;;;;5030261;28;20073;-71
2022/06/15 10:20:22;;;;;;;0.00;0.00;;;;;;;;;;5039947;28;20084;-71
2022/06/15 10:22:53;;;;;;;0.10;0.10;;;;;;;;;;5050981;28;20124;-71
2022/06/15 10:25:21;;;;;;;0.05;0.05;;;;;;;;;;5051358;28;20049;-72
2022/06/15 10:27:51;;;;;;;0.00;0.00;;;;;;;;;;5034394;28;20405;-72
2022/06/15 10:30:21;;;;;;;0.00;0.00;;;;;;;;;;5035987;28;20087;-72
2022/06/15 10:33:00;;;;;;;0.00;0.00;;;;;;;;;;5032076;28;20516;-72
2022/06/15 10:35:30;;;;;;;0.00;0.00;;;;;;;;;;5030995;28;20053;-72
2022/06/15 10:38:00;;;;;;;0.38;0.38;;;;;;;;;;5030110;28;20137;-72
2022/06/15 10:40:31;;;;;;;0.00;0.00;;;;;;;;;;5031525;28;20054;-72
2022/06/15 10:43:03;;;;;;;0.00;0.00;;;;;;;;;;5050779;28;20059;-71
2022/06/15 10:45:35;;;;;;;0.13;0.10;;;;;;;;;;5050620;28;20084;-72
2022/06/15 10:48:08;;;;;;;0.00;0.00;;;;;;;;;;5042687;28;20053;-72
2022/06/15 10:50:43;;;;;;;0.25;0.25;;;;;;;;;;5030416;28;20096;-72
2022/06/15 10:53:35;;;;;;;0.00;0.00;;;;;;;;;;5067910;28;20052;-72
2022/06/15 11:04:32;;;;;;;0.25;0.25;;;;;;;;;;5071970;28;20048;-72
2022/06/15 11:07:02;;;;;;;0.00;0.00;;;;;;;;;;5033815;28;20049;-71
2022/06/15 11:09:32;;;;;;;0.30;0.30;;;;;;;;;;5034489;28;20097;-72
2022/06/15 11:12:02;;;;;;;0.45;0.32;;;;;;;;;;5048135;28;20052;-72
2022/06/15 11:14:33;;;;;;;0.00;0.00;;;;;;;;;;5054550;28;20088;-72
2022/06/15 11:20:08;;;;;;;0.40;0.40;;;;;;;;;;5053640;28;20064;-72
2022/06/15 11:22:37;;;;;;;0.15;0.15;;;;;;;;;;5045771;28;20048;-70
2022/06/15 11:25:08;;;;;;;0.00;0.00;;;;;;;;;;5033948;28;20513;-70
2022/06/15 11:27:38;;;;;;;0.05;0.05;;;;;;;;;;5033621;28;20072;-71
2022/06/15 11:30:14;;;;;;;0.00;0.00;;;;;;;;;;5033789;28;20183;-71
2022/06/15 11:32:45;;;;;;;0.00;0.00;;;;;;;;;;5050400;28;20535;-71
2022/06/15 11:35:26;;;;;;;0.00;0.00;;;;;;;;;;5053623;28;20132;-71
2022/06/15 11:37:57;;;;;;;0.00;0.00;;;;;;;;;;5052823;28;20117;-71
2022/06/15 11:40:28;;;;;;;0.00;0.00;;;;;;;;;;5031127;28;20534;-71
2022/06/15 11:42:58;;;;;;;0.00;0.00;;;;;;;;;;5033663;28;20084;-70
2022/06/15 11:45:30;;;;;;;0.10;0.10;;;;;;;;;;5033341;28;20045;-70
2022/06/15 11:48:04;;;;;;;0.80;0.38;;;;;;;;;;5032672;28;20053;-71
2022/06/15 11:50:38;;;;;;;0.10;0.10;;;;;;;;;;5034320;28;20060;-71
2022/06/15 11:53:13;;;;;;;0.10;0.10;;;;;;;;;;5066748;28;20044;-71
2022/06/15 11:55:45;;;;;;;0.10;0.10;;;;;;;;;;5071334;28;20049;-71
2022/06/15 11:58:30;;;;;;;0.03;0.03;;;;;;;;;;5032785;28;20041;-72
2022/06/15 12:01:13;;;;;;;0.00;0.00;;;;;;;;;;5033446;28;20057;-71
2022/06/15 12:03:47;;;;;;;0.10;0.10;;;;;;;;;;5033166;28;20076;-71
2022/06/15 12:06:23;;;;;;;0.10;0.10;;;;;;;;;;5033151;28;20046;-71
2022/06/15 12:08:57;;;;;;;0.00;0.00;;;;;;;;;;5032069;28;20100;-71
2022/06/15 12:14:31;;;;;;;0.45;0.45;;;;;;;;;;5030876;28;20444;-71
2022/06/15 12:17:02;;;;;;;0.10;0.10;;;;;;;;;;5031954;28;20046;-71
2022/06/15 12:19:35;;;;;;;0.00;0.00;;;;;;;;;;5032487;28;20052;-71
2022/06/15 12:22:09;;;;;;;0.25;0.22;;;;;;;;;;5032886;28;20049;-72
2022/06/15 12:24:43;;;;;;;0.00;0.00;;;;;;;;;;5032055;28;20064;-71
2022/06/15 12:27:16;;;;;;;0.10;0.10;;;;;;;;;;5031924;28;20076;-71
2022/06/15 12:29:50;;;;;;;0.08;0.05;;;;;;;;;;5032461;28;20115;-71
2022/06/15 12:35:17;;;;;;;1.20;0.55;;;;;;;;;;5032964;28;20469;-72
2022/06/15 12:37:53;;;;;;;0.00;0.00;;;;;;;;;;5031126;28;20076;-71
2022/06/15 12:40:26;;;;;;;0.00;0.00;;;;;;;;;;5032190;28;20049;-72
2022/06/15 12:42:56;;;;;;;0.00;0.00;;;;;;;;;;5032482;28;20045;-70
2022/06/15 12:45:28;;;;;;;0.80;0.10;;;;;;;;;;5032379;28;20049;-69
2022/06/15 12:47:57;;;;;;;0.05;0.05;;;;;;;;;;5037893;28;20049;-70
2022/06/15 12:50:32;;;;;;;0.10;0.00;;;;;;;;;;5032656;28;20057;-70
2022/06/15 12:53:06;;;;;;;0.00;0.00;;;;;;;;;;5051970;28;20401;-71
2022/06/15 12:55:38;;;;;;;0.00;0.00;;;;;;;;;;5052390;28;20139;-71
2022/06/15 12:58:13;;;;;;;0.10;0.10;;;;;;;;;;5051135;28;20106;-71
2022/06/15 13:00:43;;;;;;;0.10;0.10;;;;;;;;;;5052159;28;20055;-71
2022/06/15 13:03:16;;;;;;;0.00;0.00;;;;;;;;;;5052138;28;20092;-71
2022/06/15 13:05:45;;;;;;;0.10;0.10;;;;;;;;;;5026968;28;20053;-71
2022/06/15 13:08:20;;;;;;;0.10;0.10;;;;;;;;;;5031694;28;20041;-71
2022/06/15 13:11:08;;;;;;;0.00;0.00;;;;;;;;;;5035748;28;20565;-71
2022/06/15 13:13:38;;;;;;;0.00;0.00;;;;;;;;;;5052356;28;20115;-70
2022/06/15 13:16:08;;;;;;;0.10;0.10;;;;;;;;;;5052072;28;20459;-71
2022/06/15 13:18:43;;;;;;;0.00;0.00;;;;;;;;;;5051672;28;20048;-71
2022/06/15 13:21:12;;;;;;;0.00;0.00;;;;;;;;;;5046902;28;20047;-71
2022/06/15 13:23:44;;;;;;;0.10;0.10;;;;;;;;;;5033188;28;20115;-71
2022/06/15 13:26:15;;;;;;;0.00;0.00;;;;;;;;;;5031758;28;20053;-71
2022/06/15 13:28:46;;;;;;;0.00;0.00;;;;;;;;;;5030794;28;20111;-70
2022/06/15 13:31:15;;;;;;;0.00;0.00;;;;;;;;;;5031785;28;20052;-71
2022/06/15 13:34:05;;;;;;;0.10;0.10;;;;;;;;;;5031415;28;20053;-71
2022/06/15 13:36:36;;;;;;;0.00;0.00;;;;;;;;;;5030992;28;20064;-71
2022/06/15 13:39:20;;;;;;;0.88;0.52;;;;;;;;;;5041248;28;20102;-71
2022/06/15 13:42:10;;;;;;;0.17;0.17;;;;;;;;;;5050742;28;20061;-71
2022/06/15 13:44:49;;;;;;;0.00;0.00;;;;;;;;;;5051496;28;20052;-70
2022/06/15 13:47:20;;;;;;;0.00;0.00;;;;;;;;;;5050607;28;20477;-71
2022/06/15 13:49:50;;;;;;;0.20;0.20;;;;;;;;;;5051799;28;20160;-71
2022/06/15 13:52:23;;;;;;;0.00;0.00;;;;;;;;;;5066547;28;20052;-70
2022/06/15 13:55:01;;;;;;;0.00;0.00;;;;;;;;;;5054706;28;20066;-71
2022/06/15 13:57:42;;;;;;;0.00;0.00;;;;;;;;;;5030766;28;20140;-70
2022/06/15 14:00:15;;;;;;;0.15;0.15;;;;;;;;;;5030556;28;20099;-71
2022/06/15 14:02:49;;;;;;;0.40;0.40;;;;;;;;;;5031109;28;20080;-71
2022/06/15 14:05:34;;;;;;;0.43;0.43;;;;;;;;;;5030921;28;20509;-70
2022/06/15 14:08:10;;;;;;;0.00;0.00;;;;;;;;;;5030881;28;20103;-71
2022/06/15 14:10:45;;;;;;;0.00;0.00;;;;;;;;;;5033510;28;20048;-71
2022/06/15 14:13:13;;;;;;;;;;;;;;;;;;5041108;28;20045;-71
2022/06/15 14:16:06;;;;;;;0.00;0.00;;;;;;;;;;5031472;28;19921;-71
2022/06/15 14:18:43;;;;;;;0.00;0.00;;;;;;;;;;5030443;28;20049;-71
2022/06/15 14:21:17;;;;;;;0.15;0.15;;;;;;;;;;5030999;28;20382;-71
2022/06/15 14:23:45;;;;;;;0.70;0.32;;;;;;;;;;5031549;28;20049;-71
2022/06/15 14:26:15;;;;;;;0.00;0.00;;;;;;;;;;5030746;28;20088;-72
2022/06/15 14:28:50;;;;;;;0.28;0.28;;;;;;;;;;5030353;28;20081;-71
2022/06/15 14:31:22;;;;;;;0.00;0.00;;;;;;;;;;5030666;28;20430;-71
2022/06/15 14:33:54;;;;;;;0.00;0.00;;;;;;;;;;5030807;28;20485;-71
2022/06/15 14:36:24;;;;;;;0.10;0.10;;;;;;;;;;5030905;28;20049;-71
2022/06/15 14:38:58;;;;;;;0.20;0.20;;;;;;;;;;5030881;28;20498;-72
2022/06/15 14:41:28;;;;;;;0.32;0.32;;;;;;;;;;5034445;28;20076;-71
2022/06/15 14:43:56;;;;;;;0.15;0.15;;;;;;;;;;5034542;28;20059;-71
2022/06/15 14:46:28;;;;;;;0.00;0.00;;;;;;;;;;5034933;28;20038;-71
2022/06/15 14:48:57;;;;;;;0.13;0.13;;;;;;;;;;5034176;28;20132;-71
2022/06/15 14:51:27;;;;;;;0.10;0.10;;;;;;;;;;5042727;28;20542;-71
2022/06/15 14:53:58;;;;;;;0.00;0.00;;;;;;;;;;5054595;28;20141;-71
2022/06/15 14:56:28;;;;;;;0.47;0.30;;;;;;;;;;5054765;28;20103;-71
2022/06/15 14:59:01;;;;;;;0.00;0.00;;;;;;;;;;5053807;28;20164;-71
2022/06/15 15:01:31;;;;;;;0.00;0.00;;;;;;;;;;5054795;28;20076;-71
2022/06/15 15:04:13;;;;;;;0.00;0.00;;;;;;;;;;5035845;28;20068;-71
2022/06/15 15:06:49;;;;;;;0.00;0.00;;;;;;;;;;5033580;28;20041;-71
2022/06/15 15:09:18;;;;;;;0.13;0.13;;;;;;;;;;5034171;28;20079;-71
2022/06/15 15:11:46;;;;;;;0.00;0.00;;;;;;;;;;5045512;28;20088;-70
2022/06/15 15:14:21;;;;;;;0.00;0.00;;;;;;;;;;5053755;28;20081;-70
2022/06/15 15:16:58;;;;;;;0.63;0.40;;;;;;;;;;5052989;28;20126;-70
2022/06/15 15:19:29;;;;;;;0.00;0.00;;;;;;;;;;5053819;28;20088;-70
2022/06/15 15:22:03;;;;;;;0.20;0.20;;;;;;;;;;5034856;28;20057;-70
2022/06/15 15:24:34;;;;;;;0.17;0.17;;;;;;;;;;5034243;28;20050;-70
2022/06/15 15:27:07;;;;;;;0.10;0.10;;;;;;;;;;5032793;28;20486;-70
2022/06/15 15:35:46;;;;;;;0.10;0.10;;;;;;;;;;5053919;28;20102;-70
2022/06/15 15:38:33;;;;;;;0.00;0.00;;;;;;;;;;5030008;28;20116;-70
2022/06/15 15:41:06;;;;;;;0.13;0.13;;;;;;;;;;5033351;28;20108;-70